Time;durP1;ratioP1;P1;durP2;ratioP2;P2;SDS_P1;SDS_P2;PMS_P1;PMS_P2;Temp;Humidity;BMP_temperature;BMP_pressure;BME280_temperature;BME280_humidity;BME280_pressure;Samples;Min_cycle;Max_cycle;Signal;HPM_P1;HPM_P2
2022/08/13 00:02:10;;;;;;;;;;;29.00;93.10;;;;;;5147753;27;19944;-60
2022/08/13 00:04:49;;;;;;;;;;;29.00;93.10;;;;;;5147081;27;19947;-59
2022/08/13 00:07:19;;;;;;;;;;;29.00;93.10;;;;;;5147476;27;19907;-58
2022/08/13 00:09:45;;;;;;;;;;;28.90;93.00;;;;;;5147326;27;19911;-62
2022/08/13 00:15:10;;;;;;;;;;;28.90;92.90;;;;;;5163101;27;20133;-60
2022/08/13 00:17:39;;;;;;;;;;;28.80;93.00;;;;;;5167103;27;20234;-60
2022/08/13 00:20:06;;;;;;;;;;;28.90;93.10;;;;;;5167932;27;19989;-59
2022/08/13 00:22:33;;;;;;;;;;;28.80;93.20;;;;;;5167359;27;19903;-59
2022/08/13 00:25:01;;;;;;;;;;;28.80;93.30;;;;;;5167783;27;19907;-60
2022/08/13 00:27:28;;;;;;;;;;;28.80;93.40;;;;;;5166028;27;19907;-59
2022/08/13 00:29:56;;;;;;;;;;;28.80;93.40;;;;;;5152148;27;19907;-61
2022/08/13 00:32:32;;;;;;;;;;;28.80;93.40;;;;;;5146961;27;19932;-60
2022/08/13 00:35:02;;;;;;;;;;;28.70;93.40;;;;;;5155784;27;19907;-60
2022/08/13 00:37:28;;;;;;;;;;;28.70;93.50;;;;;;5151711;27;20203;-61
2022/08/13 00:39:54;;;;;;;;;;;28.70;93.50;;;;;;5156390;27;19979;-60
2022/08/13 00:42:21;;;;;;;;;;;28.70;93.80;;;;;;5167172;27;19931;-60
2022/08/13 00:44:48;;;;;;;;;;;28.70;93.80;;;;;;5167850;27;19974;-59
2022/08/13 00:50:00;;;;;;;;;;;28.70;94.00;;;;;;5167578;27;19914;-60
2022/08/13 00:52:30;;;;;;;;;;;28.70;93.90;;;;;;5167186;27;19942;-61
2022/08/13 00:55:06;;;;;;;;;;;28.70;94.00;;;;;;5167159;27;19911;-64
2022/08/13 00:57:32;;;;;;;;;;;28.70;94.10;;;;;;5166053;27;19911;-62
2022/08/13 00:59:58;;;;;;;;;;;28.70;94.20;;;;;;5159921;27;19907;-59
2022/08/13 01:02:24;;;;;;;;;;;28.70;94.20;;;;;;5166949;27;19903;-58
2022/08/13 01:04:53;;;;;;;;;;;28.70;94.10;;;;;;5166980;27;19906;-56
2022/08/13 01:07:19;;;;;;;;;;;28.60;94.10;;;;;;5166924;27;20016;-54
2022/08/13 01:09:46;;;;;;;;;;;28.60;94.30;;;;;;5166178;27;20098;-57
2022/08/13 01:12:13;;;;;;;;;;;28.60;94.70;;;;;;5166814;27;20102;-56
2022/08/13 01:14:40;;;;;;;;;;;28.60;94.40;;;;;;5167507;27;19938;-57
2022/08/13 01:17:07;;;;;;;;;;;28.60;94.40;;;;;;5147283;27;19911;-60
2022/08/13 01:19:34;;;;;;;;;;;28.60;94.70;;;;;;5165985;27;19910;-57
2022/08/13 01:22:01;;;;;;;;;;;28.60;95.10;;;;;;5160215;27;19907;-57
2022/08/13 01:24:28;;;;;;;;;;;28.50;95.20;;;;;;5146128;27;19939;-55
2022/08/13 01:26:56;;;;;;;;;;;28.50;95.20;;;;;;5158545;27;20161;-53
2022/08/13 01:29:23;;;;;;;;;;;28.40;95.20;;;;;;5146402;27;19974;-55
2022/08/13 01:31:51;;;;;;;;;;;28.40;95.10;;;;;;5145643;27;19909;-56
2022/08/13 01:34:20;;;;;;;;;;;28.30;95.20;;;;;;5146274;27;19903;-59
2022/08/13 01:36:46;;;;;;;;;;;28.30;95.20;;;;;;5145566;27;19907;-59
2022/08/13 01:39:14;;;;;;;;;;;28.30;95.20;;;;;;5145948;27;20130;-56
2022/08/13 01:41:40;;;;;;;;;;;28.20;95.20;;;;;;5145697;27;19907;-52
2022/08/13 01:44:07;;;;;;;;;;;28.20;95.20;;;;;;5146046;27;20171;-63
2022/08/13 01:52:04;;;;;;;;;;;28.20;95.50;;;;;;5166083;27;19914;-54
2022/08/13 01:54:34;;;;;;;;;;;28.10;95.60;;;;;;5166540;27;19903;-55
2022/08/13 01:57:02;;;;;;;;;;;28.10;95.70;;;;;;5166013;27;19918;-60
2022/08/13 01:59:28;;;;;;;;;;;28.00;95.60;;;;;;5166433;27;19953;-59
2022/08/13 02:01:57;;;;;;;;;;;28.00;95.70;;;;;;5166316;27;19951;-53
2022/08/13 02:04:23;;;;;;;;;;;28.00;95.60;;;;;;5166555;27;19903;-56
2022/08/13 02:06:49;;;;;;;;;;;28.10;95.70;;;;;;5165840;27;19952;-54
2022/08/13 02:09:15;;;;;;;;;;;28.00;95.60;;;;;;5166564;27;19909;-53
2022/08/13 02:11:42;;;;;;;;;;;28.00;95.60;;;;;;5166044;27;19944;-55
2022/08/13 02:14:08;;;;;;;;;;;28.00;95.50;;;;;;5165789;27;19899;-57
2022/08/13 02:16:37;;;;;;;;;;;28.00;95.60;;;;;;5166021;27;20198;-58
2022/08/13 02:19:06;;;;;;;;;;;28.00;95.70;;;;;;5166322;27;19910;-56
2022/08/13 02:21:37;;;;;;;;;;;28.10;95.80;;;;;;5165890;27;20154;-60
2022/08/13 02:24:04;;;;;;;;;;;28.00;95.70;;;;;;5166232;27;20078;-59
2022/08/13 02:26:32;;;;;;;;;;;28.10;95.80;;;;;;5165829;27;19907;-57
2022/08/13 02:29:00;;;;;;;;;;;28.00;95.80;;;;;;5166201;27;20221;-60
2022/08/13 02:31:28;;;;;;;;;;;28.00;95.70;;;;;;5155800;27;19983;-60
2022/08/13 02:33:55;;;;;;;;;;;28.00;95.70;;;;;;5145366;28;19909;-59
2022/08/13 02:36:22;;;;;;;;;;;28.00;95.60;;;;;;5145174;28;20209;-60
2022/08/13 02:39:03;;;;;;;;;;;28.00;95.80;;;;;;5154449;27;19966;-58
2022/08/13 02:41:38;;;;;;;;;;;28.00;95.60;;;;;;5165691;27;19949;-61
2022/08/13 02:44:06;;;;;;;;;;;28.00;95.60;;;;;;5160947;27;19904;-58
2022/08/13 02:46:32;;;;;;;;;;;28.00;95.60;;;;;;5160195;27;19919;-61
2022/08/13 02:48:59;;;;;;;;;;;28.00;95.60;;;;;;5164111;27;19910;-57
2022/08/13 02:51:26;;;;;;;;;;;28.00;95.60;;;;;;5158000;27;19913;-60
2022/08/13 02:53:53;;;;;;;;;;;28.00;95.60;;;;;;5159058;27;19903;-60
2022/08/13 02:56:20;;;;;;;;;;;28.00;95.70;;;;;;5165485;27;19911;-60
2022/08/13 02:58:47;;;;;;;;;;;28.00;95.60;;;;;;5165757;27;19918;-57
2022/08/13 03:01:15;;;;;;;;;;;28.00;95.60;;;;;;5165662;27;19907;-59
2022/08/13 03:03:41;;;;;;;;;;;28.00;95.50;;;;;;5165163;27;19948;-61
2022/08/13 03:06:10;;;;;;;;;;;27.90;95.50;;;;;;5162346;27;19918;-59
2022/08/13 03:08:37;;;;;;;;;;;27.90;95.50;;;;;;5162352;27;19903;-60
2022/08/13 03:11:04;;;;;;;;;;;28.00;95.50;;;;;;5167752;27;19943;-58
2022/08/13 03:13:36;;;;;;;;;;;27.90;95.50;;;;;;5165160;27;19974;-57
2022/08/13 03:16:03;;;;;;;;;;;27.90;95.50;;;;;;5168071;27;19907;-59
2022/08/13 03:18:30;;;;;;;;;;;27.90;95.40;;;;;;5169396;27;19902;-58
2022/08/13 03:20:57;;;;;;;;;;;27.90;95.50;;;;;;5166540;27;19914;-56
2022/08/13 03:23:24;;;;;;;;;;;27.90;95.50;;;;;;5159009;27;20175;-61
2022/08/13 03:25:50;;;;;;;;;;;27.90;95.50;;;;;;5147892;27;20194;-59
2022/08/13 03:28:16;;;;;;;;;;;27.80;95.40;;;;;;5148231;27;19910;-58
2022/08/13 03:30:43;;;;;;;;;;;27.80;95.40;;;;;;5150598;27;19942;-59
2022/08/13 03:33:11;;;;;;;;;;;27.80;95.50;;;;;;5159848;27;19910;-61
2022/08/13 03:35:37;;;;;;;;;;;27.80;95.50;;;;;;5168721;27;19910;-59
2022/08/13 03:38:04;;;;;;;;;;;27.80;95.40;;;;;;5168647;27;19899;-59
2022/08/13 03:41:00;;;;;;;;;;;27.80;95.50;;;;;;5168437;27;20215;-59
2022/08/13 03:43:17;;;;;;;;;;;27.80;95.60;;;;;;5168653;27;19910;-57
2022/08/13 03:45:46;;;;;;;;;;;27.80;95.60;;;;;;5168293;27;19907;-59
2022/08/13 03:48:13;;;;;;;;;;;27.80;95.60;;;;;;5168840;27;19969;-60
2022/08/13 03:50:40;;;;;;;;;;;27.80;95.60;;;;;;5168458;27;20191;-57
2022/08/13 03:53:06;;;;;;;;;;;27.70;95.60;;;;;;5168337;27;20127;-59
2022/08/13 03:55:37;;;;;;;;;;;27.70;95.60;;;;;;5168090;27;19903;-56
2022/08/13 03:58:04;;;;;;;;;;;27.70;95.60;;;;;;5168213;27;20087;-59
2022/08/13 04:00:32;;;;;;;;;;;27.70;95.70;;;;;;5168552;27;19911;-59
2022/08/13 04:03:00;;;;;;;;;;;27.70;95.70;;;;;;5168198;27;19973;-59
2022/08/13 04:05:27;;;;;;;;;;;27.70;95.60;;;;;;5168175;27;19941;-59
2022/08/13 04:07:53;;;;;;;;;;;27.70;95.80;;;;;;5168077;27;19918;-61
2022/08/13 04:10:20;;;;;;;;;;;27.70;95.80;;;;;;5167750;27;19991;-59
2022/08/13 04:12:46;;;;;;;;;;;27.70;95.70;;;;;;5168095;27;19906;-58
2022/08/13 04:15:12;;;;;;;;;;;27.70;95.60;;;;;;5168139;27;19907;-58
2022/08/13 04:17:40;;;;;;;;;;;27.60;95.60;;;;;;5167959;27;20250;-60
2022/08/13 04:20:07;;;;;;;;;;;27.60;95.60;;;;;;5161258;27;20086;-60
2022/08/13 04:22:34;;;;;;;;;;;27.60;95.60;;;;;;5151907;27;19907;-60
2022/08/13 04:25:00;;;;;;;;;;;27.60;95.60;;;;;;5146849;27;19907;-57
2022/08/13 04:27:26;;;;;;;;;;;27.60;95.60;;;;;;5146624;27;19907;-60
2022/08/13 04:29:55;;;;;;;;;;;27.60;95.60;;;;;;5146834;27;19911;-59
2022/08/13 04:32:23;;;;;;;;;;;27.60;95.60;;;;;;5146780;27;19910;-61
2022/08/13 04:34:49;;;;;;;;;;;27.60;95.60;;;;;;5146690;27;19974;-61
2022/08/13 04:37:16;;;;;;;;;;;27.60;95.70;;;;;;5146618;27;19910;-60
2022/08/13 04:39:43;;;;;;;;;;;27.60;95.70;;;;;;5147023;27;19931;-59
2022/08/13 04:42:11;;;;;;;;;;;27.50;95.70;;;;;;5146478;27;19935;-57
2022/08/13 04:44:37;;;;;;;;;;;27.60;95.80;;;;;;5146825;27;19941;-58
2022/08/13 04:47:07;;;;;;;;;;;27.50;95.80;;;;;;5146400;27;19915;-59
2022/08/13 04:49:33;;;;;;;;;;;27.50;95.80;;;;;;5146968;27;20016;-59
2022/08/13 04:51:59;;;;;;;;;;;27.50;95.90;;;;;;5146294;27;19972;-58
2022/08/13 04:54:28;;;;;;;;;;;27.50;95.90;;;;;;5146683;27;19906;-59
2022/08/13 04:56:55;;;;;;;;;;;27.50;95.90;;;;;;5145887;27;20047;-58
2022/08/13 04:59:22;;;;;;;;;;;27.50;96.00;;;;;;5146574;27;19938;-57
2022/08/13 05:01:48;;;;;;;;;;;27.50;96.00;;;;;;5146151;27;20248;-59
2022/08/13 05:04:17;;;;;;;;;;;27.50;95.90;;;;;;5146639;27;19899;-59
2022/08/13 05:06:43;;;;;;;;;;;27.50;95.90;;;;;;5127566;27;20247;-58
2022/08/13 05:09:10;;;;;;;;;;;27.50;95.90;;;;;;5146595;27;19903;-59
2022/08/13 05:11:37;;;;;;;;;;;27.40;95.90;;;;;;5145897;27;19908;-59
2022/08/13 05:14:04;;;;;;;;;;;27.40;95.90;;;;;;5146317;27;19903;-59
2022/08/13 05:16:30;;;;;;;;;;;27.40;95.90;;;;;;5145992;27;20125;-59
2022/08/13 05:18:56;;;;;;;;;;;27.40;95.90;;;;;;5146384;27;19903;-57
2022/08/13 05:21:23;;;;;;;;;;;27.40;95.90;;;;;;5145882;27;19907;-57
2022/08/13 05:23:55;;;;;;;;;;;27.40;95.90;;;;;;5146159;27;19903;-58
2022/08/13 05:26:25;;;;;;;;;;;27.40;95.80;;;;;;5145355;27;19911;-58
2022/08/13 05:28:52;;;;;;;;;;;27.40;95.80;;;;;;5146025;27;20243;-59
2022/08/13 05:31:18;;;;;;;;;;;27.40;95.70;;;;;;5146034;27;20121;-56
2022/08/13 05:33:44;;;;;;;;;;;27.30;95.70;;;;;;5145420;27;19907;-57
2022/08/13 05:36:10;;;;;;;;;;;27.30;95.60;;;;;;5145677;27;20103;-58
2022/08/13 05:38:37;;;;;;;;;;;27.30;95.60;;;;;;5145954;27;20124;-59
2022/08/13 05:41:07;;;;;;;;;;;27.30;95.60;;;;;;5145337;27;19911;-59
2022/08/13 05:43:36;;;;;;;;;;;27.30;95.50;;;;;;5145979;27;19910;-59
2022/08/13 05:46:08;;;;;;;;;;;27.30;95.30;;;;;;5145723;27;19952;-57
2022/08/13 05:48:38;;;;;;;;;;;27.30;95.10;;;;;;5144654;27;19903;-57
2022/08/13 05:51:07;;;;;;;;;;;27.40;95.00;;;;;;5145734;27;19930;-57
2022/08/13 05:53:35;;;;;;;;;;;27.40;94.90;;;;;;5145673;27;19931;-58
2022/08/13 05:56:03;;;;;;;;;;;27.40;94.70;;;;;;5145426;27;19940;-58
2022/08/13 05:58:31;;;;;;;;;;;27.40;94.70;;;;;;5145433;28;19911;-58
2022/08/13 06:03:42;;;;;;;;;;;27.40;94.50;;;;;;5151221;27;19910;-58
2022/08/13 06:06:10;;;;;;;;;;;27.30;94.50;;;;;;5151110;27;19911;-59
2022/08/13 06:08:38;;;;;;;;;;;27.30;94.50;;;;;;5145206;28;19935;-57
2022/08/13 06:11:05;;;;;;;;;;;27.30;94.50;;;;;;5159597;27;19962;-57
2022/08/13 06:13:33;;;;;;;;;;;27.30;94.40;;;;;;5166329;27;20112;-57
2022/08/13 06:16:00;;;;;;;;;;;27.30;94.40;;;;;;5159415;27;19907;-58
2022/08/13 06:18:31;;;;;;;;;;;27.30;94.40;;;;;;5154182;27;19910;-64
2022/08/13 06:20:58;;;;;;;;;;;27.30;94.30;;;;;;5145375;28;20194;-59
2022/08/13 06:23:25;;;;;;;;;;;27.30;94.40;;;;;;5151035;27;20179;-57
2022/08/13 06:25:52;;;;;;;;;;;27.30;94.30;;;;;;5159503;27;19961;-58
2022/08/13 06:28:23;;;;;;;;;;;27.30;94.30;;;;;;5154030;27;19903;-58
2022/08/13 06:30:50;;;;;;;;;;;27.30;94.40;;;;;;5145127;28;20080;-58
2022/08/13 06:33:21;;;;;;;;;;;27.30;94.40;;;;;;5150574;27;19906;-56
2022/08/13 06:35:49;;;;;;;;;;;27.30;94.40;;;;;;5165799;27;19907;-57
2022/08/13 06:38:17;;;;;;;;;;;27.30;94.40;;;;;;5166213;27;19903;-56
2022/08/13 06:40:44;;;;;;;;;;;27.30;94.30;;;;;;5166229;27;19907;-58
2022/08/13 06:43:11;;;;;;;;;;;27.30;94.30;;;;;;5165975;27;20083;-57
2022/08/13 06:45:39;;;;;;;;;;;27.30;94.30;;;;;;5167966;27;19903;-60
2022/08/13 06:48:05;;;;;;;;;;;27.30;94.40;;;;;;5170182;27;19959;-59
2022/08/13 06:50:36;;;;;;;;;;;27.30;94.30;;;;;;5169373;27;19903;-58
2022/08/13 06:53:06;;;;;;;;;;;27.20;94.40;;;;;;5169563;27;19949;-58
2022/08/13 06:55:36;;;;;;;;;;;27.20;94.40;;;;;;5170081;27;19903;-57
2022/08/13 06:58:07;;;;;;;;;;;27.20;94.50;;;;;;5169737;27;19911;-58
2022/08/13 07:00:35;;;;;;;;;;;27.20;94.50;;;;;;5169811;27;19910;-58
2022/08/13 07:03:02;;;;;;;;;;;27.20;94.50;;;;;;5169589;27;19925;-60
2022/08/13 07:05:31;;;;;;;;;;;27.20;94.50;;;;;;5169064;27;19910;-58
2022/08/13 07:07:59;;;;;;;;;;;27.20;94.50;;;;;;5165865;27;20193;-59
2022/08/13 07:10:25;;;;;;;;;;;27.20;94.70;;;;;;5169474;27;19911;-57
2022/08/13 07:12:52;;;;;;;;;;;27.20;94.60;;;;;;5169605;27;19959;-59
2022/08/13 07:15:18;;;;;;;;;;;27.10;94.60;;;;;;5169417;27;19907;-57
2022/08/13 07:17:45;;;;;;;;;;;27.10;94.60;;;;;;5167345;27;19907;-60
2022/08/13 07:20:12;;;;;;;;;;;27.20;94.70;;;;;;5168195;27;19987;-59
2022/08/13 07:22:38;;;;;;;;;;;27.10;94.70;;;;;;5168496;27;20094;-61
2022/08/13 07:25:04;;;;;;;;;;;27.10;94.70;;;;;;5167125;27;20270;-54
2022/08/13 07:27:31;;;;;;;;;;;27.10;94.70;;;;;;5163992;27;19914;-54
2022/08/13 07:29:59;;;;;;;;;;;27.10;94.70;;;;;;5148516;27;20151;-56
2022/08/13 07:32:27;;;;;;;;;;;27.10;94.80;;;;;;5148182;27;20187;-54
2022/08/13 07:34:56;;;;;;;;;;;27.10;94.70;;;;;;5148057;27;19909;-54
2022/08/13 07:37:22;;;;;;;;;;;27.10;94.70;;;;;;5148076;27;20091;-55
2022/08/13 07:39:48;;;;;;;;;;;27.10;94.70;;;;;;5148185;27;20179;-56
2022/08/13 07:42:15;;;;;;;;;;;27.10;94.70;;;;;;5147945;27;20285;-57
2022/08/13 07:44:41;;;;;;;;;;;27.10;94.70;;;;;;5148423;27;20290;-54
2022/08/13 07:47:11;;;;;;;;;;;27.10;94.70;;;;;;5155609;27;19910;-54
2022/08/13 07:49:37;;;;;;;;;;;27.10;94.70;;;;;;5168976;27;19910;-56
2022/08/13 07:52:05;;;;;;;;;;;27.10;94.70;;;;;;5168756;27;19915;-54
2022/08/13 07:54:32;;;;;;;;;;;27.10;94.60;;;;;;5168153;27;19942;-57
2022/08/13 07:56:59;;;;;;;;;;;27.00;94.60;;;;;;5166321;27;20357;-54
2022/08/13 07:59:26;;;;;;;;;;;27.00;94.70;;;;;;5167101;27;19903;-54
2022/08/13 08:01:53;;;;;;;;;;;27.10;94.70;;;;;;5166561;27;19903;-59
2022/08/13 08:04:21;;;;;;;;;;;27.00;94.70;;;;;;5166984;27;19903;-51
2022/08/13 08:06:48;;;;;;;;;;;27.10;94.70;;;;;;5165896;27;19915;-55
2022/08/13 08:09:17;;;;;;;;;;;27.10;94.70;;;;;;5167095;27;19903;-54
2022/08/13 08:14:30;;;;;;;;;;;27.00;94.60;;;;;;5168578;27;19921;-54
2022/08/13 08:16:57;;;;;;;;;;;27.00;94.60;;;;;;5167927;27;19907;-55
2022/08/13 08:19:24;;;;;;;;;;;27.00;94.70;;;;;;5168480;27;20214;-55
2022/08/13 08:21:51;;;;;;;;;;;26.90;94.70;;;;;;5168160;27;19907;-59
2022/08/13 08:24:17;;;;;;;;;;;26.90;94.70;;;;;;5168331;27;19899;-54
2022/08/13 08:26:46;;;;;;;;;;;26.90;94.80;;;;;;5167729;27;19911;-55
2022/08/13 08:29:13;;;;;;;;;;;26.90;94.80;;;;;;5168320;27;20083;-54
2022/08/13 08:31:40;;;;;;;;;;;26.90;94.70;;;;;;5167651;27;19903;-54
2022/08/13 08:34:07;;;;;;;;;;;26.90;94.70;;;;;;5168138;27;19903;-57
2022/08/13 08:36:37;;;;;;;;;;;26.90;94.70;;;;;;5167858;27;19924;-55
2022/08/13 08:44:34;;;;;;;;;;;26.90;94.80;;;;;;5168153;27;19925;-58
2022/08/13 08:47:01;;;;;;;;;;;26.90;94.80;;;;;;5167251;27;19907;-56
2022/08/13 08:49:30;;;;;;;;;;;26.90;94.80;;;;;;5168058;27;20060;-57
2022/08/13 08:51:57;;;;;;;;;;;26.90;94.90;;;;;;5167062;27;19910;-58
2022/08/13 08:54:25;;;;;;;;;;;26.90;94.90;;;;;;5168028;27;19906;-57
2022/08/13 08:56:55;;;;;;;;;;;26.90;94.90;;;;;;5167196;27;19914;-57
2022/08/13 08:59:23;;;;;;;;;;;26.90;94.90;;;;;;5167852;27;19914;-57
2022/08/13 09:01:52;;;;;;;;;;;26.90;95.00;;;;;;5167200;27;19914;-56
2022/08/13 09:04:20;;;;;;;;;;;26.90;95.00;;;;;;5167601;27;19910;-57
2022/08/13 09:06:52;;;;;;;;;;;26.90;95.00;;;;;;5166651;27;19979;-54
2022/08/13 09:09:19;;;;;;;;;;;26.90;95.10;;;;;;5166780;27;19944;-56
2022/08/13 09:11:46;;;;;;;;;;;26.90;95.10;;;;;;5166975;27;19956;-54
2022/08/13 09:14:13;;;;;;;;;;;26.80;95.30;;;;;;5167820;27;19903;-56
2022/08/13 09:16:40;;;;;;;;;;;26.90;95.10;;;;;;5166828;27;19914;-58
2022/08/13 09:19:06;;;;;;;;;;;26.80;95.10;;;;;;5166976;27;20262;-54
2022/08/13 09:21:36;;;;;;;;;;;26.80;95.10;;;;;;5166956;27;19915;-55
2022/08/13 09:24:03;;;;;;;;;;;26.80;95.00;;;;;;5166660;27;19899;-57
2022/08/13 09:26:29;;;;;;;;;;;26.80;95.10;;;;;;5166588;27;20195;-57
2022/08/13 09:28:56;;;;;;;;;;;26.80;95.10;;;;;;5148405;27;19970;-55
2022/08/13 09:31:23;;;;;;;;;;;26.80;95.10;;;;;;5166782;27;19907;-58
2022/08/13 09:33:52;;;;;;;;;;;26.80;95.10;;;;;;5166759;27;19903;-55
2022/08/13 09:36:21;;;;;;;;;;;26.80;95.10;;;;;;5166553;27;20191;-56
2022/08/13 09:38:48;;;;;;;;;;;26.80;95.10;;;;;;5166761;27;19903;-55
2022/08/13 09:41:21;;;;;;;;;;;26.80;95.10;;;;;;5166422;27;19907;-57
2022/08/13 09:43:49;;;;;;;;;;;26.80;95.20;;;;;;5167054;27;19940;-57
2022/08/13 09:46:16;;;;;;;;;;;26.80;95.20;;;;;;5166369;27;19911;-57
2022/08/13 09:48:43;;;;;;;;;;;26.80;95.20;;;;;;5166671;27;19903;-55
2022/08/13 09:51:13;;;;;;;;;;;26.80;95.20;;;;;;5166424;27;19974;-55
2022/08/13 09:53:40;;;;;;;;;;;26.80;95.30;;;;;;5166527;27;19909;-57
2022/08/13 09:56:08;;;;;;;;;;;26.80;95.30;;;;;;5166108;27;19925;-57
2022/08/13 09:58:34;;;;;;;;;;;26.80;95.30;;;;;;5166478;27;19911;-56
2022/08/13 10:01:00;;;;;;;;;;;26.80;95.30;;;;;;5166087;27;19914;-55
2022/08/13 10:03:27;;;;;;;;;;;26.80;95.30;;;;;;5166185;27;19903;-55
2022/08/13 10:05:53;;;;;;;;;;;26.80;95.40;;;;;;5166573;27;20195;-61
2022/08/13 10:08:19;;;;;;;;;;;26.80;95.40;;;;;;5166140;27;19899;-58
2022/08/13 10:10:47;;;;;;;;;;;26.80;95.40;;;;;;5165939;27;19991;-58
2022/08/13 10:13:13;;;;;;;;;;;26.70;95.40;;;;;;5166520;27;19903;-57
2022/08/13 10:15:41;;;;;;;;;;;26.70;95.50;;;;;;5166216;27;19907;-60
2022/08/13 10:18:08;;;;;;;;;;;26.70;95.50;;;;;;5165938;27;20056;-58
2022/08/13 10:20:37;;;;;;;;;;;26.70;95.50;;;;;;5170171;27;20186;-58
2022/08/13 10:23:05;;;;;;;;;;;26.70;95.50;;;;;;5170361;27;19903;-55
2022/08/13 10:25:31;;;;;;;;;;;26.70;95.50;;;;;;5170015;27;20006;-55
2022/08/13 10:27:58;;;;;;;;;;;26.70;95.50;;;;;;5170289;27;20171;-56
2022/08/13 10:30:25;;;;;;;;;;;26.70;95.40;;;;;;5170228;27;19907;-57
2022/08/13 10:32:54;;;;;;;;;;;26.80;95.50;;;;;;5170080;27;19899;-58
2022/08/13 10:35:21;;;;;;;;;;;26.70;95.40;;;;;;5170162;27;19907;-55
2022/08/13 10:37:57;;;;;;;;;;;26.70;95.40;;;;;;5170224;27;20182;-56
2022/08/13 10:40:25;;;;;;;;;;;26.70;95.40;;;;;;5169866;27;19960;-55
2022/08/13 10:42:52;;;;;;;;;;;26.70;95.40;;;;;;5169937;27;19903;-56
2022/08/13 10:45:24;;;;;;;;;;;26.70;95.40;;;;;;5169768;27;19907;-54
2022/08/13 10:47:51;;;;;;;;;;;26.70;95.40;;;;;;5165838;27;19918;-54
2022/08/13 10:50:22;;;;;;;;;;;26.70;95.40;;;;;;5165331;27;19914;-56
2022/08/13 10:52:48;;;;;;;;;;;26.70;95.50;;;;;;5169677;27;19903;-57
2022/08/13 10:55:15;;;;;;;;;;;26.60;95.50;;;;;;5169603;27;19907;-55
2022/08/13 10:57:43;;;;;;;;;;;26.60;95.60;;;;;;5169436;27;19911;-56
2022/08/13 11:00:11;;;;;;;;;;;26.70;95.60;;;;;;5169374;27;19907;-57
2022/08/13 11:02:37;;;;;;;;;;;26.70;95.50;;;;;;5167643;27;19906;-56
2022/08/13 11:05:05;;;;;;;;;;;26.70;95.60;;;;;;5163300;27;19944;-61
2022/08/13 11:07:41;;;;;;;;;;;26.70;95.60;;;;;;5169212;27;19907;-59
2022/08/13 11:10:10;;;;;;;;;;;26.70;95.60;;;;;;5169433;27;19914;-57
2022/08/13 11:12:36;;;;;;;;;;;26.70;95.60;;;;;;5169203;27;19903;-54
2022/08/13 11:15:03;;;;;;;;;;;26.70;95.60;;;;;;5169051;27;19907;-56
2022/08/13 11:17:29;;;;;;;;;;;26.70;95.60;;;;;;5168396;27;19903;-57
2022/08/13 11:19:56;;;;;;;;;;;26.70;95.50;;;;;;5161618;27;19929;-55
2022/08/13 11:22:28;;;;;;;;;;;26.70;95.50;;;;;;5169103;27;20213;-57
2022/08/13 11:25:01;;;;;;;;;;;26.70;95.40;;;;;;5169272;27;19950;-59
2022/08/13 11:27:27;;;;;;;;;;;26.70;95.40;;;;;;5168768;27;19902;-55
2022/08/13 11:29:53;;;;;;;;;;;26.70;95.40;;;;;;5160292;27;19907;-58
2022/08/13 11:32:20;;;;;;;;;;;26.70;95.50;;;;;;5168267;27;19906;-56
2022/08/13 11:34:46;;;;;;;;;;;26.70;95.50;;;;;;5169454;27;19903;-59
2022/08/13 11:37:12;;;;;;;;;;;26.70;95.50;;;;;;5168756;27;19907;-55
2022/08/13 11:39:41;;;;;;;;;;;26.70;95.50;;;;;;5168648;27;19903;-58
2022/08/13 11:42:09;;;;;;;;;;;26.70;95.60;;;;;;5168732;27;20003;-60
2022/08/13 11:44:35;;;;;;;;;;;26.70;95.50;;;;;;5169117;27;19934;-60
2022/08/13 11:47:05;;;;;;;;;;;26.70;95.30;;;;;;5168722;27;20148;-60
2022/08/13 11:49:37;;;;;;;;;;;26.70;95.30;;;;;;5169131;27;19969;-55
2022/08/13 11:52:07;;;;;;;;;;;26.70;95.20;;;;;;5168648;27;19911;-60
2022/08/13 11:54:53;;;;;;;;;;;26.70;95.20;;;;;;5168507;27;19902;-59
2022/08/13 11:57:19;;;;;;;;;;;26.70;95.20;;;;;;5151549;27;19930;-56
2022/08/13 11:59:45;;;;;;;;;;;26.70;95.30;;;;;;5165375;27;19904;-61
2022/08/13 12:05:04;;;;;;;;;;;26.70;95.40;;;;;;5116361;27;19906;-57
2022/08/13 12:07:48;;;;;;;;;;;26.70;95.50;;;;;;5144013;27;19920;-56
2022/08/13 12:10:17;;;;;;;;;;;26.70;95.60;;;;;;5160323;27;19903;-56
2022/08/13 12:12:44;;;;;;;;;;;26.80;95.70;;;;;;5168564;27;19944;-56
2022/08/13 12:15:13;;;;;;;;;;;26.70;95.80;;;;;;5168534;27;19948;-55
2022/08/13 12:17:42;;;;;;;;;;;26.80;95.80;;;;;;5131738;27;19907;-59
2022/08/13 12:20:09;;;;;;;;;;;26.80;95.80;;;;;;5149615;27;19899;-56
2022/08/13 12:22:39;;;;;;;;;;;26.90;95.90;;;;;;5168167;27;20170;-58
2022/08/13 12:25:06;;;;;;;;;;;26.90;95.80;;;;;;5168101;27;19942;-54
2022/08/13 12:27:32;;;;;;;;;;;26.90;95.90;;;;;;5167891;27;19929;-61
2022/08/13 12:29:58;;;;;;;;;;;26.90;96.00;;;;;;5168250;27;19903;-55
2022/08/13 12:32:24;;;;;;;;;;;26.90;95.90;;;;;;5167933;27;19903;-55
2022/08/13 12:34:51;;;;;;;;;;;26.90;95.90;;;;;;5168178;27;20105;-57
2022/08/13 12:37:17;;;;;;;;;;;27.00;95.80;;;;;;5167731;27;19907;-56
2022/08/13 12:39:43;;;;;;;;;;;27.00;95.80;;;;;;5168021;27;19903;-55
2022/08/13 12:42:09;;;;;;;;;;;27.00;95.80;;;;;;5166858;27;19910;-57
2022/08/13 12:44:35;;;;;;;;;;;27.10;95.80;;;;;;5167765;27;20194;-58
2022/08/13 12:47:02;;;;;;;;;;;27.10;95.70;;;;;;5167573;27;19951;-57
2022/08/13 12:49:28;;;;;;;;;;;27.10;95.60;;;;;;5167592;27;19903;-59
2022/08/13 12:51:54;;;;;;;;;;;27.10;95.40;;;;;;5167290;27;19931;-60
2022/08/13 12:54:21;;;;;;;;;;;27.10;95.40;;;;;;5167886;27;19910;-56
2022/08/13 12:56:50;;;;;;;;;;;27.20;95.40;;;;;;5167937;27;19903;-63
2022/08/13 12:59:17;;;;;;;;;;;27.20;95.40;;;;;;5167604;27;20186;-57
2022/08/13 13:01:43;;;;;;;;;;;27.20;95.40;;;;;;5167261;27;19906;-56
2022/08/13 13:04:10;;;;;;;;;;;27.20;95.40;;;;;;5167399;27;19908;-54
2022/08/13 13:06:36;;;;;;;;;;;27.20;95.40;;;;;;5167030;27;19993;-56
2022/08/13 13:09:02;;;;;;;;;;;27.20;95.30;;;;;;5167225;27;20167;-56
2022/08/13 13:11:29;;;;;;;;;;;27.20;95.10;;;;;;5167228;27;19906;-58
2022/08/13 13:13:55;;;;;;;;;;;27.20;95.20;;;;;;5148523;27;19944;-54
2022/08/13 13:16:21;;;;;;;;;;;27.20;95.30;;;;;;5166980;27;19903;-54
2022/08/13 13:18:47;;;;;;;;;;;27.20;95.40;;;;;;5148471;27;20012;-56
2022/08/13 13:21:13;;;;;;;;;;;27.20;95.50;;;;;;5166847;27;19948;-58
2022/08/13 13:23:39;;;;;;;;;;;27.20;95.60;;;;;;5164563;27;20076;-55
2022/08/13 13:26:06;;;;;;;;;;;27.20;95.60;;;;;;5138887;27;20195;-56
2022/08/13 13:28:35;;;;;;;;;;;27.20;95.60;;;;;;5164491;27;19970;-60
2022/08/13 13:31:04;;;;;;;;;;;27.20;95.60;;;;;;5166884;27;19929;-63
2022/08/13 13:33:31;;;;;;;;;;;27.20;95.60;;;;;;5166639;27;19906;-62
2022/08/13 13:35:57;;;;;;;;;;;27.10;95.50;;;;;;5149780;27;19978;-60
2022/08/13 13:38:24;;;;;;;;;;;27.10;95.60;;;;;;5145804;27;19978;-60
2022/08/13 13:40:52;;;;;;;;;;;27.10;95.60;;;;;;5145984;27;19915;-61
2022/08/13 13:43:20;;;;;;;;;;;27.20;95.60;;;;;;5145192;27;19910;-62
2022/08/13 13:45:46;;;;;;;;;;;27.10;95.60;;;;;;5146067;27;19965;-61
2022/08/13 13:48:45;;;;;;;;;;;27.10;95.60;;;;;;5145918;27;19979;-62
2022/08/13 13:51:12;;;;;;;;;;;27.10;95.70;;;;;;5130033;27;19915;-61
2022/08/13 13:53:39;;;;;;;;;;;27.10;95.70;;;;;;5162420;27;19900;-61
2022/08/13 13:56:07;;;;;;;;;;;27.10;95.90;;;;;;5140576;27;19923;-63
2022/08/13 13:58:40;;;;;;;;;;;27.10;95.90;;;;;;5145106;27;19946;-61
2022/08/13 14:01:06;;;;;;;;;;;27.20;95.70;;;;;;5171804;27;19909;-61
2022/08/13 14:03:41;;;;;;;;;;;27.10;95.60;;;;;;5170071;27;20036;-61
2022/08/13 14:06:09;;;;;;;;;;;27.20;95.60;;;;;;5145758;27;19907;-62
2022/08/13 14:08:36;;;;;;;;;;;27.20;95.90;;;;;;5163949;27;19906;-62
2022/08/13 14:11:02;;;;;;;;;;;27.20;96.10;;;;;;5171825;27;19898;-62
2022/08/13 14:13:28;;;;;;;;;;;27.20;96.10;;;;;;5168637;27;19907;-62
2022/08/13 14:15:55;;;;;;;;;;;27.20;96.10;;;;;;5164343;27;19917;-62
2022/08/13 14:18:21;;;;;;;;;;;27.30;95.90;;;;;;5159358;27;19945;-62
2022/08/13 14:20:48;;;;;;;;;;;27.30;95.90;;;;;;5164748;27;19918;-63
2022/08/13 14:23:14;;;;;;;;;;;27.40;95.80;;;;;;5166199;27;20099;-62
2022/08/13 14:25:45;;;;;;;;;;;27.40;95.90;;;;;;5164743;27;20243;-63
2022/08/13 14:28:13;;;;;;;;;;;27.40;95.50;;;;;;5166144;27;19953;-63
2022/08/13 14:30:39;;;;;;;;;;;27.40;95.50;;;;;;5152572;27;20182;-63
2022/08/13 14:33:07;;;;;;;;;;;27.40;95.10;;;;;;5168299;27;19951;-63
2022/08/13 14:35:33;;;;;;;;;;;27.40;95.20;;;;;;5164714;27;20199;-61
2022/08/13 14:37:59;;;;;;;;;;;27.40;95.20;;;;;;5165817;27;19951;-63
2022/08/13 14:40:25;;;;;;;;;;;27.50;95.10;;;;;;5166157;27;20009;-61
2022/08/13 14:42:54;;;;;;;;;;;27.50;95.10;;;;;;5186823;27;20102;-61
2022/08/13 14:48:31;;;;;;;;;;;27.50;95.00;;;;;;5186605;27;19926;-60